createdAt,value
2022-07-29T00:01:36.777Z,18.3
2022-07-29T00:11:36.934Z,18.1
2022-07-29T00:21:37.265Z,18
2022-07-29T00:31:37.907Z,17.9
2022-07-29T00:41:38.819Z,17.8
2022-07-29T00:51:39.247Z,17.6
2022-07-29T01:01:40.105Z,17.6
2022-07-29T01:21:40.812Z,17.4
2022-07-29T01:41:42.060Z,17.2
2022-07-29T01:51:42.713Z,17
2022-07-29T02:01:44.078Z,17
2022-07-29T02:11:44.539Z,17
2022-07-29T02:21:44.914Z,16.9
2022-07-29T02:31:45.886Z,16.8
2022-07-29T02:41:46.325Z,16.7
2022-07-29T02:51:46.901Z,16.8
2022-07-29T03:01:47.658Z,16.7
2022-07-29T03:11:50.267Z,16.6
2022-07-29T03:21:49.262Z,16.6
2022-07-29T03:31:49.711Z,16.7
2022-07-29T03:41:49.889Z,16.7
2022-07-29T03:51:50.055Z,16.7
2022-07-29T04:01:51.218Z,16.8
2022-07-29T04:11:57.183Z,16.9
2022-07-29T04:21:52.486Z,17
2022-07-29T04:31:53.466Z,17
2022-07-29T04:41:54.963Z,16.9
2022-07-29T04:51:54.627Z,16.8
2022-07-29T05:01:55.603Z,16.7
2022-07-29T05:21:56.397Z,16.2
2022-07-29T05:41:56.944Z,15.9
2022-07-29T05:51:57.690Z,15.9
2022-07-29T06:01:58.745Z,15.9
2022-07-29T06:11:59.440Z,16
2022-07-29T06:22:00.467Z,15.8
2022-07-29T06:32:01.417Z,15.7
2022-07-29T06:42:01.840Z,15.8
2022-07-29T06:52:02.134Z,15.9
2022-07-29T07:02:02.501Z,15.9
2022-07-29T07:12:03.072Z,16.1
2022-07-29T07:22:04.047Z,16.2
2022-07-29T07:32:04.504Z,16.2
2022-07-29T07:42:05.324Z,16.3
2022-07-29T07:52:05.673Z,16.5
2022-07-29T08:12:06.597Z,16.8
2022-07-29T08:22:06.987Z,17.1
2022-07-29T08:32:07.552Z,17.3
2022-07-29T08:42:08.534Z,17.4
2022-07-29T08:52:08.993Z,17.7
2022-07-29T09:02:09.524Z,17.9
2022-07-29T09:22:10.884Z,17.6
2022-07-29T09:32:11.843Z,17.5
2022-07-29T09:52:13.542Z,17.2
2022-07-29T10:02:15.838Z,17.3
2022-07-29T10:12:14.283Z,17.2
2022-07-29T10:22:26.429Z,17.2
2022-07-29T10:32:16.323Z,17.1
2022-07-29T10:42:19.847Z,17.2
2022-07-29T10:52:17.338Z,17.1
2022-07-29T11:02:36.739Z,17.1
2022-07-29T11:12:18.566Z,17.4
2022-07-29T11:32:22.628Z,17.6
2022-07-29T11:52:20.873Z,17.7
2022-07-29T12:02:36.886Z,18
2022-07-29T12:12:22.078Z,18.9
2022-07-29T12:22:22.468Z,20.1
2022-07-29T12:32:22.791Z,21.1
2022-07-29T12:42:23.148Z,22.1
2022-07-29T12:52:23.607Z,22.5
2022-07-29T13:12:25.224Z,23.2
2022-07-29T13:22:25.701Z,22.7
2022-07-29T13:32:28.009Z,22.3
2022-07-29T13:42:27.242Z,22.2
2022-07-29T13:52:27.334Z,22.4
2022-07-29T14:02:28.292Z,22.4
2022-07-29T14:12:28.501Z,22.3
2022-07-29T14:22:29.224Z,22.3
2022-07-29T14:32:29.619Z,23
2022-07-29T14:42:29.942Z,23.8
2022-07-29T14:52:30.116Z,24.2
2022-07-29T15:02:46.024Z,24.4
2022-07-29T15:12:31.020Z,23.6
2022-07-29T15:22:32.008Z,23.2
2022-07-29T15:32:32.405Z,23.4
2022-07-29T15:42:33.170Z,23.4
2022-07-29T15:52:33.496Z,23.9
2022-07-29T16:02:33.996Z,24.4
2022-07-29T16:12:34.793Z,24.9
2022-07-29T16:22:35.820Z,24.6
2022-07-29T16:32:36.759Z,24.3
2022-07-29T16:42:46.383Z,24.1
2022-07-29T16:52:37.059Z,24.1
2022-07-29T17:02:37.725Z,24.2
2022-07-29T17:22:38.671Z,23.5
2022-07-29T17:32:39.866Z,23.6
2022-07-29T17:42:40.460Z,23.4
2022-07-29T17:52:41.417Z,23.4
2022-07-29T18:02:41.734Z,23.4
2022-07-29T18:12:42.443Z,23.2
2022-07-29T18:22:43.358Z,23
2022-07-29T18:32:54.473Z,22.8
2022-07-29T18:42:44.953Z,22.6
2022-07-29T18:52:45.638Z,22.4
2022-07-29T19:02:45.907Z,22.2
2022-07-29T19:12:46.736Z,21.8
2022-07-29T19:22:47.300Z,21.4
2022-07-29T19:32:47.984Z,21.1
2022-07-29T19:42:48.868Z,20.7
2022-07-29T19:52:49.596Z,20.4
2022-07-29T20:12:50.550Z,19.5
2022-07-29T20:22:51.304Z,19.3
2022-07-29T20:32:52.393Z,19
2022-07-29T20:42:52.873Z,18.8
2022-07-29T21:02:54.601Z,18.3
2022-07-29T21:12:54.843Z,18
2022-07-29T21:22:54.993Z,17.7
2022-07-29T21:32:56.111Z,17.4
2022-07-29T21:42:56.186Z,17.3
2022-07-29T21:52:56.948Z,17.3
2022-07-29T22:12:57.668Z,17.2
2022-07-29T22:22:58.683Z,17.1
2022-07-29T22:32:58.767Z,17
2022-07-29T22:42:59.594Z,16.9
2022-07-29T22:53:00.620Z,16.7
2022-07-29T23:03:01.361Z,16.6
2022-07-29T23:13:01.849Z,16.4
2022-07-29T23:23:02.744Z,16.4
2022-07-29T23:43:08.432Z,16.1
2022-07-29T23:53:04.802Z,15.9
